Time;durP1;ratioP1;P1;durP2;ratioP2;P2;SDS_P1;SDS_P2;PMS_P1;PMS_P2;Temp;Humidity;BMP_temperature;BMP_pressure;BME280_temperature;BME280_humidity;BME280_pressure;Samples;Min_cycle;Max_cycle;Signal;HPM_P1;HPM_P2
2022/02/11 00:00:38;;;;;;;;;;;3.60;99.90;;;;;;5035594;28;20372;-80
2022/02/11 00:07:56;;;;;;;;;;;3.90;99.90;;;;;;5053719;28;19908;-80
2022/02/11 00:10:23;;;;;;;;;;;4.20;99.90;;;;;;5035850;28;19909;-79
2022/02/11 00:12:48;;;;;;;;;;;4.40;99.90;;;;;;5035815;28;20015;-79
2022/02/11 00:17:59;;;;;;;;;;;4.20;99.90;;;;;;5053967;28;20384;-79
2022/02/11 00:20:24;;;;;;;;;;;4.10;99.90;;;;;;5053166;28;19913;-79
2022/02/11 00:22:50;;;;;;;;;;;4.00;99.90;;;;;;5053557;28;19909;-79
2022/02/11 00:25:17;;;;;;;;;;;3.90;99.90;;;;;;5053561;28;19915;-79
2022/02/11 00:37:46;;;;;;;;;;;3.10;99.90;;;;;;5053689;28;19913;-79
2022/02/11 00:41:05;;;;;;;;;;;3.10;99.90;;;;;;5053454;28;19920;-79
2022/02/11 01:04:12;;;;;;;;;;;3.30;99.90;;;;;;5052949;28;19935;-80
2022/02/11 01:06:37;;;;;;;;;;;3.40;99.90;;;;;;5053133;28;20424;-79
2022/02/11 01:09:03;;;;;;;;;;;3.50;99.90;;;;;;5053155;28;19909;-79
2022/02/11 01:11:45;;;;;;;;;;;3.60;99.90;;;;;;5035283;28;19909;-79
2022/02/11 01:14:11;;;;;;;;;;;3.60;99.90;;;;;;5034885;28;19948;-79
2022/02/11 01:16:51;;;;;;;;;;;3.60;99.90;;;;;;5052900;28;20369;-79
2022/02/11 01:22:42;;;;;;;;;;;3.40;99.90;;;;;;5052701;28;19979;-79
2022/02/11 01:35:23;;;;;;;;;;;3.70;99.90;;;;;;5056466;28;19909;-79
2022/02/11 01:53:42;;;;;;;;;;;3.00;99.90;;;;;;5056400;28;19909;-79
2022/02/11 01:59:07;;;;;;;;;;;3.30;99.90;;;;;;5056614;28;19915;-79
2022/02/11 02:25:58;;;;;;;;;;;3.70;99.90;;;;;;5055372;28;19913;-79
2022/02/11 02:34:16;;;;;;;;;;;3.40;99.90;;;;;;5024572;28;20388;-79
2022/02/11 02:50:13;;;;;;;;;;;3.70;99.90;;;;;;5055081;28;19920;-79
2022/02/11 02:58:24;;;;;;;;;;;3.40;99.90;;;;;;5054907;28;19915;-79
2022/02/11 04:56:36;;;;;;;;;;;2.00;99.90;;;;;;5053002;28;19909;-79
2022/02/11 05:01:47;;;;;;;;;;;1.90;99.90;;;;;;5053008;28;20051;-79
2022/02/11 05:04:12;;;;;;;;;;;2.20;99.90;;;;;;5035553;28;19947;-79
2022/02/11 05:06:38;;;;;;;;;;;2.30;99.90;;;;;;5036655;28;20292;-79
2022/02/11 05:09:03;;;;;;;;;;;2.20;99.90;;;;;;5057015;28;19909;-79
2022/02/11 05:11:30;;;;;;;;;;;2.10;99.90;;;;;;5057172;28;19909;-79
2022/02/11 05:13:55;;;;;;;;;;;2.10;99.90;;;;;;5038928;28;19913;-79
2022/02/11 05:16:21;;;;;;;;;;;2.20;99.90;;;;;;5056689;28;19925;-79
2022/02/11 05:18:46;;;;;;;;;;;2.40;99.90;;;;;;5056853;28;20452;-79
2022/02/11 05:21:12;;;;;;;;;;;2.40;99.90;;;;;;5038784;28;19912;-79
2022/02/11 05:23:37;;;;;;;;;;;2.30;99.90;;;;;;5057013;28;19989;-79
2022/02/11 05:26:03;;;;;;;;;;;2.10;99.90;;;;;;5056716;28;19909;-79
2022/02/11 05:28:29;;;;;;;;;;;1.80;99.90;;;;;;5056706;28;19909;-79
2022/02/11 05:30:54;;;;;;;;;;;1.90;99.90;;;;;;5038758;28;19913;-79
2022/02/11 05:33:21;;;;;;;;;;;1.80;99.90;;;;;;5056785;28;19920;-79
2022/02/11 05:35:46;;;;;;;;;;;1.90;99.90;;;;;;5038701;28;19909;-79
2022/02/11 05:38:12;;;;;;;;;;;2.10;99.90;;;;;;5056609;28;20357;-79
2022/02/11 05:40:37;;;;;;;;;;;2.00;99.90;;;;;;5056423;28;20356;-79
2022/02/11 05:43:03;;;;;;;;;;;2.00;99.90;;;;;;5038580;28;20373;-79
2022/02/11 05:45:29;;;;;;;;;;;2.00;99.90;;;;;;5056503;28;19915;-79
2022/02/11 05:47:55;;;;;;;;;;;2.00;99.90;;;;;;5056300;28;19909;-79
2022/02/11 05:50:20;;;;;;;;;;;2.00;99.90;;;;;;5056300;28;19908;-79
2022/02/11 05:52:46;;;;;;;;;;;2.00;99.90;;;;;;5056162;28;19908;-79
2022/02/11 05:55:11;;;;;;;;;;;1.90;99.90;;;;;;5056223;28;19962;-79
2022/02/11 05:57:37;;;;;;;;;;;1.70;99.90;;;;;;5056137;28;19909;-79
2022/02/11 06:00:03;;;;;;;;;;;1.70;99.90;;;;;;5056146;28;19923;-79
2022/02/11 06:02:29;;;;;;;;;;;1.60;99.90;;;;;;5056018;28;20335;-79
2022/02/11 06:04:54;;;;;;;;;;;1.70;99.90;;;;;;5038090;28;19909;-79
2022/02/11 06:07:20;;;;;;;;;;;1.80;99.90;;;;;;5038026;28;19954;-79
2022/02/11 06:09:46;;;;;;;;;;;1.70;99.90;;;;;;5055990;28;20281;-79
2022/02/11 06:12:12;;;;;;;;;;;1.70;99.90;;;;;;5055866;28;19909;-79
2022/02/11 06:14:38;;;;;;;;;;;1.50;99.90;;;;;;5055762;28;19917;-79
2022/02/11 06:17:06;;;;;;;;;;;1.50;99.90;;;;;;5055620;28;19921;-79
2022/02/11 06:19:32;;;;;;;;;;;1.50;99.90;;;;;;5055064;28;19913;-79
2022/02/11 06:21:58;;;;;;;;;;;1.30;99.90;;;;;;5055668;28;20340;-79
2022/02/11 06:24:23;;;;;;;;;;;1.20;99.90;;;;;;5055601;28;20365;-79
2022/02/11 06:26:49;;;;;;;;;;;1.00;99.90;;;;;;5055792;28;19966;-79
2022/02/11 06:29:14;;;;;;;;;;;1.10;99.90;;;;;;5055713;28;20330;-79
2022/02/11 06:31:40;;;;;;;;;;;1.40;99.90;;;;;;5055413;28;19913;-79
2022/02/11 06:34:09;;;;;;;;;;;1.40;99.90;;;;;;5055457;28;19920;-79
2022/02/11 06:36:35;;;;;;;;;;;1.40;99.90;;;;;;5055414;28;19915;-79
2022/02/11 06:39:00;;;;;;;;;;;1.30;99.90;;;;;;5055761;28;20003;-79
2022/02/11 06:41:26;;;;;;;;;;;1.40;99.90;;;;;;5055331;28;19916;-79
2022/02/11 06:43:51;;;;;;;;;;;1.50;99.90;;;;;;5055360;28;19959;-79
2022/02/11 06:46:17;;;;;;;;;;;1.50;99.90;;;;;;5055189;28;19913;-79
2022/02/11 06:48:44;;;;;;;;;;;1.60;99.90;;;;;;5037206;28;19956;-79
2022/02/11 06:51:10;;;;;;;;;;;1.70;99.90;;;;;;5055285;28;20281;-79
2022/02/11 06:53:36;;;;;;;;;;;1.70;99.90;;;;;;5055093;28;19916;-79
2022/02/11 06:56:04;;;;;;;;;;;1.60;99.90;;;;;;5055103;28;19971;-79
2022/02/11 06:58:30;;;;;;;;;;;1.30;99.90;;;;;;5037031;28;19913;-79
2022/02/11 07:00:56;;;;;;;;;;;1.50;99.90;;;;;;5055150;28;19913;-79
2022/02/11 07:03:23;;;;;;;;;;;1.50;99.90;;;;;;5055032;28;19992;-79
2022/02/11 07:05:51;;;;;;;;;;;1.30;99.90;;;;;;5054783;28;19913;-79
2022/02/11 07:08:17;;;;;;;;;;;1.40;99.90;;;;;;5054784;28;19913;-79
2022/02/11 07:10:43;;;;;;;;;;;1.30;99.90;;;;;;5054839;28;20007;-79
2022/02/11 07:13:13;;;;;;;;;;;1.20;99.90;;;;;;5054690;28;19932;-79
2022/02/11 07:15:39;;;;;;;;;;;1.20;99.90;;;;;;5054424;28;19913;-79
2022/02/11 07:18:05;;;;;;;;;;;1.10;99.90;;;;;;5036446;28;19917;-79
2022/02/11 07:20:30;;;;;;;;;;;1.40;99.90;;;;;;5054778;28;19940;-79
2022/02/11 07:22:56;;;;;;;;;;;1.50;99.90;;;;;;5054850;28;19917;-79
2022/02/11 07:25:22;;;;;;;;;;;1.60;99.90;;;;;;5036631;28;19967;-79
2022/02/11 07:27:47;;;;;;;;;;;1.50;99.90;;;;;;5054426;28;19916;-79
2022/02/11 07:30:13;;;;;;;;;;;1.60;99.90;;;;;;5053461;28;20503;-80
2022/02/11 07:32:38;;;;;;;;;;;1.60;99.90;;;;;;5054404;28;19920;-79
2022/02/11 07:35:04;;;;;;;;;;;1.70;99.90;;;;;;5036444;28;19954;-79
2022/02/11 07:37:30;;;;;;;;;;;1.60;99.90;;;;;;5036422;28;20278;-79
2022/02/11 07:39:58;;;;;;;;;;;1.80;99.90;;;;;;5036305;28;19909;-79
2022/02/11 07:42:25;;;;;;;;;;;1.90;99.90;;;;;;5036373;28;19908;-79
2022/02/11 07:44:51;;;;;;;;;;;1.90;99.90;;;;;;5054279;28;19959;-80
2022/02/11 07:47:17;;;;;;;;;;;2.20;99.90;;;;;;5036240;28;20365;-79
2022/02/11 07:49:43;;;;;;;;;;;2.50;99.90;;;;;;5054081;28;19971;-79
2022/02/11 07:52:08;;;;;;;;;;;3.10;99.90;;;;;;5053927;28;19917;-79
2022/02/11 07:54:34;;;;;;;;;;;3.70;99.90;;;;;;5036009;28;19908;-79
2022/02/11 07:56:59;;;;;;;;;;;4.20;99.90;;;;;;5053966;28;19962;-80
2022/02/11 07:59:25;;;;;;;;;;;4.50;99.90;;;;;;5053846;28;19908;-80
2022/02/11 08:01:50;;;;;;;;;;;5.00;99.90;;;;;;5053912;28;20365;-80
2022/02/11 08:04:16;;;;;;;;;;;5.10;99.90;;;;;;5054056;28;19909;-80
2022/02/11 08:06:42;;;;;;;;;;;5.40;99.90;;;;;;5053806;28;19930;-80
2022/02/11 08:09:07;;;;;;;;;;;5.60;99.90;;;;;;5053363;28;20395;-79
2022/02/11 08:11:33;;;;;;;;;;;5.80;99.90;;;;;;5053641;28;19913;-80
2022/02/11 08:13:59;;;;;;;;;;;7.00;99.90;;;;;;5053870;28;19996;-80
2022/02/11 08:16:24;;;;;;;;;;;7.80;99.90;;;;;;5053834;28;20378;-80
2022/02/11 08:18:50;;;;;;;;;;;8.50;99.90;;;;;;5053931;28;20000;-80
2022/02/11 08:21:16;;;;;;;;;;;9.10;99.90;;;;;;5053883;28;19909;-80
2022/02/11 08:23:41;;;;;;;;;;;9.20;99.30;;;;;;5035756;28;19916;-80
2022/02/11 08:26:07;;;;;;;;;;;9.40;98.10;;;;;;5054085;28;19908;-80
2022/02/11 08:28:33;;;;;;;;;;;9.50;98.30;;;;;;5035567;28;19909;-80
2022/02/11 08:31:00;;;;;;;;;;;9.80;98.50;;;;;;5053622;28;19919;-80
2022/02/11 08:33:25;;;;;;;;;;;10.80;97.50;;;;;;5053478;28;19909;-80
2022/02/11 08:35:51;;;;;;;;;;;11.60;95.80;;;;;;5053703;28;20348;-80
2022/02/11 08:38:17;;;;;;;;;;;12.30;94.60;;;;;;5053474;28;19909;-80
2022/02/11 08:40:43;;;;;;;;;;;12.90;93.00;;;;;;5053700;28;19909;-81
2022/02/11 08:43:09;;;;;;;;;;;13.30;91.90;;;;;;5057512;28;19909;-80
2022/02/11 08:45:37;;;;;;;;;;;13.10;90.80;;;;;;5057529;28;19915;-80
2022/02/11 08:48:03;;;;;;;;;;;13.30;90.40;;;;;;5039591;28;20292;-80
2022/02/11 08:50:29;;;;;;;;;;;13.70;89.10;;;;;;5039449;28;19913;-80
2022/02/11 08:52:55;;;;;;;;;;;14.10;88.20;;;;;;5057513;28;20475;-81
2022/02/11 08:55:22;;;;;;;;;;;14.70;85.80;;;;;;5057528;28;19915;-81
2022/02/11 08:57:48;;;;;;;;;;;14.20;84.30;;;;;;5057322;28;20404;-80
2022/02/11 09:00:14;;;;;;;;;;;14.90;83.50;;;;;;5057791;28;19942;-80
2022/02/11 09:02:40;;;;;;;;;;;15.80;81.80;;;;;;5057216;28;19919;-80
2022/02/11 09:05:05;;;;;;;;;;;16.10;79.60;;;;;;5057297;28;19913;-81
2022/02/11 09:07:31;;;;;;;;;;;16.80;77.70;;;;;;5057109;28;19931;-80
2022/02/11 09:09:57;;;;;;;;;;;16.90;75.40;;;;;;5057072;28;19944;-81
2022/02/11 09:12:22;;;;;;;;;;;17.30;75.50;;;;;;5057017;28;19909;-81
2022/02/11 09:14:48;;;;;;;;;;;18.50;72.30;;;;;;5057089;28;19952;-81
2022/02/11 09:17:15;;;;;;;;;;;19.40;70.00;;;;;;5056744;28;19928;-81
2022/02/11 09:19:42;;;;;;;;;;;19.30;68.30;;;;;;5056869;28;19999;-81
2022/02/11 09:22:07;;;;;;;;;;;18.40;66.60;;;;;;5057217;28;19952;-81
2022/02/11 09:24:33;;;;;;;;;;;16.70;69.50;;;;;;5056839;28;20385;-81
2022/02/11 09:26:58;;;;;;;;;;;15.90;72.30;;;;;;5038892;28;19913;-81
2022/02/11 09:29:24;;;;;;;;;;;16.60;72.20;;;;;;5056806;28;19908;-81
2022/02/11 09:31:50;;;;;;;;;;;19.10;68.30;;;;;;5056627;28;20283;-81
2022/02/11 09:34:15;;;;;;;;;;;19.70;63.90;;;;;;5056827;28;19909;-80
2022/02/11 09:36:41;;;;;;;;;;;18.80;65.20;;;;;;5056884;28;20361;-81
2022/02/11 09:39:08;;;;;;;;;;;18.40;66.30;;;;;;5056532;28;19943;-81
2022/02/11 09:41:37;;;;;;;;;;;17.50;67.10;;;;;;5038508;28;19920;-81
2022/02/11 09:44:04;;;;;;;;;;;17.90;67.50;;;;;;5038516;28;19916;-81
2022/02/11 09:46:30;;;;;;;;;;;19.50;67.70;;;;;;5056552;28;19917;-81
2022/02/11 09:48:56;;;;;;;;;;;21.70;64.00;;;;;;5038442;28;19909;-81
2022/02/11 09:51:21;;;;;;;;;;;23.00;61.60;;;;;;5056290;28;19916;-81
2022/02/11 09:53:48;;;;;;;;;;;23.20;60.20;;;;;;5055650;28;19909;-81
2022/02/11 09:56:14;;;;;;;;;;;24.00;57.50;;;;;;5056143;28;19916;-81
2022/02/11 09:58:40;;;;;;;;;;;24.20;57.00;;;;;;5056145;28;19913;-81
2022/02/11 10:01:06;;;;;;;;;;;23.40;55.80;;;;;;5056039;28;19923;-81
2022/02/11 10:03:31;;;;;;;;;;;23.90;57.70;;;;;;5056062;28;20000;-79
2022/02/11 10:06:04;;;;;;;;;;;22.80;56.00;;;;;;5055966;28;19909;-78
2022/02/11 10:08:32;;;;;;;;;;;22.10;58.00;;;;;;5038099;28;20324;-79
2022/02/11 10:10:58;;;;;;;;;;;20.70;59.20;;;;;;5037966;28;19909;-79
2022/02/11 10:13:25;;;;;;;;;;;21.40;60.50;;;;;;5037970;28;20004;-79
2022/02/11 10:15:55;;;;;;;;;;;24.50;57.00;;;;;;5056070;28;19921;-78
2022/02/11 10:18:24;;;;;;;;;;;25.50;54.30;;;;;;5056362;28;19908;-77
2022/02/11 10:20:53;;;;;;;;;;;25.80;53.70;;;;;;5055710;28;20420;-79
2022/02/11 10:23:20;;;;;;;;;;;25.20;52.80;;;;;;5055934;28;20400;-79
2022/02/11 10:26:05;;;;;;;;;;;25.30;53.60;;;;;;5037742;28;19909;-79
2022/02/11 10:28:32;;;;;;;;;;;26.30;52.60;;;;;;5055740;28;19916;-79
2022/02/11 10:31:08;;;;;;;;;;;26.40;51.00;;;;;;5055549;28;20412;-78
2022/02/11 10:33:54;;;;;;;;;;;27.00;50.60;;;;;;5055517;28;19909;-79
2022/02/11 10:36:21;;;;;;;;;;;26.10;50.90;;;;;;5036946;28;19954;-79
2022/02/11 10:38:58;;;;;;;;;;;26.70;51.00;;;;;;5055488;28;19955;-79
2022/02/11 10:41:24;;;;;;;;;;;26.90;50.10;;;;;;5037188;28;19913;-79
2022/02/11 10:43:56;;;;;;;;;;;27.00;50.00;;;;;;5055273;28;19916;-79
2022/02/11 10:46:21;;;;;;;;;;;27.30;49.40;;;;;;5055571;28;19916;-78
2022/02/11 10:48:47;;;;;;;;;;;25.90;48.30;;;;;;5055155;28;20293;-79
2022/02/11 10:51:23;;;;;;;;;;;25.70;48.40;;;;;;5055685;28;19909;-78
2022/02/11 10:53:49;;;;;;;;;;;26.60;47.80;;;;;;5055183;28;19935;-79
2022/02/11 10:56:15;;;;;;;;;;;25.80;47.70;;;;;;5054778;28;20373;-79
2022/02/11 10:58:51;;;;;;;;;;;24.50;49.40;;;;;;5055329;28;19909;-78
2022/02/11 11:01:17;;;;;;;;;;;23.80;48.90;;;;;;5036818;28;19919;-79
2022/02/11 11:03:44;;;;;;;;;;;23.40;50.60;;;;;;5037047;28;19999;-79
2022/02/11 11:06:10;;;;;;;;;;;23.60;49.70;;;;;;5055127;28;19932;-78
2022/02/11 11:08:38;;;;;;;;;;;23.50;50.50;;;;;;5055030;28;19912;-78
2022/02/11 11:11:07;;;;;;;;;;;24.50;49.60;;;;;;5036926;28;19909;-78
2022/02/11 11:13:35;;;;;;;;;;;25.60;48.70;;;;;;5036842;28;19949;-78
2022/02/11 11:16:01;;;;;;;;;;;26.10;46.20;;;;;;5036571;28;20285;-79
2022/02/11 11:18:27;;;;;;;;;;;26.00;47.10;;;;;;5054952;28;19909;-78
2022/02/11 11:20:54;;;;;;;;;;;25.80;47.10;;;;;;5054645;28;19913;-78
2022/02/11 11:23:22;;;;;;;;;;;27.10;46.80;;;;;;5054549;28;20297;-78
2022/02/11 11:25:55;;;;;;;;;;;27.10;46.50;;;;;;5054775;28;19909;-78
2022/02/11 11:28:39;;;;;;;;;;;28.10;45.40;;;;;;5054475;28;19916;-78
2022/02/11 11:31:28;;;;;;;;;;;28.30;45.40;;;;;;5054478;28;20357;-78
2022/02/11 11:34:12;;;;;;;;;;;27.60;43.40;;;;;;5026432;28;19913;-78
2022/02/11 11:36:40;;;;;;;;;;;28.80;44.20;;;;;;5054617;28;19909;-78
2022/02/11 11:39:06;;;;;;;;;;;28.30;43.10;;;;;;5054324;28;19913;-78
2022/02/11 11:41:33;;;;;;;;;;;29.40;42.80;;;;;;5036317;28;19913;-78
2022/02/11 11:44:14;;;;;;;;;;;28.30;44.20;;;;;;5036252;28;19912;-78
2022/02/11 11:46:46;;;;;;;;;;;28.00;43.50;;;;;;5054465;28;20254;-78
2022/02/11 11:49:12;;;;;;;;;;;28.70;43.00;;;;;;5053938;28;19909;-78
2022/02/11 11:51:38;;;;;;;;;;;28.30;42.90;;;;;;5055705;28;19915;-78
2022/02/11 11:54:16;;;;;;;;;;;27.90;43.00;;;;;;5038705;28;19975;-78
2022/02/11 11:56:43;;;;;;;;;;;27.30;43.00;;;;;;5065129;28;19913;-79
2022/02/11 11:59:31;;;;;;;;;;;28.40;42.60;;;;;;5063623;28;19913;-78
2022/02/11 12:02:04;;;;;;;;;;;27.70;44.00;;;;;;5053880;28;19913;-78
2022/02/11 12:04:50;;;;;;;;;;;28.50;42.80;;;;;;5064278;28;19908;-78
2022/02/11 12:07:18;;;;;;;;;;;27.80;42.50;;;;;;5063862;28;19944;-78
2022/02/11 12:09:46;;;;;;;;;;;28.30;43.40;;;;;;5061760;28;19916;-78
2022/02/11 12:12:12;;;;;;;;;;;30.30;41.20;;;;;;5043684;28;19915;-78
2022/02/11 12:14:42;;;;;;;;;;;28.10;41.80;;;;;;5064187;28;19916;-78
2022/02/11 12:17:09;;;;;;;;;;;30.00;41.50;;;;;;5065047;28;19921;-78
2022/02/11 12:19:35;;;;;;;;;;;30.60;40.20;;;;;;5062836;28;19915;-78
2022/02/11 12:22:01;;;;;;;;;;;31.60;38.00;;;;;;5064127;28;20288;-78
2022/02/11 12:27:30;;;;;;;;;;;26.00;40.60;;;;;;5062992;28;19935;-78
2022/02/11 12:29:57;;;;;;;;;;;26.00;42.70;;;;;;5064062;28;19908;-78
2022/02/11 12:32:25;;;;;;;;;;;27.90;41.90;;;;;;5061317;28;20372;-78
2022/02/11 12:34:51;;;;;;;;;;;29.30;40.30;;;;;;5058378;28;19963;-78
2022/02/11 12:37:18;;;;;;;;;;;30.60;40.00;;;;;;5053454;28;19944;-78
2022/02/11 12:39:44;;;;;;;;;;;30.00;39.40;;;;;;5053608;28;19909;-78
2022/02/11 12:42:10;;;;;;;;;;;30.70;39.80;;;;;;5035467;28;19935;-78
2022/02/11 12:44:35;;;;;;;;;;;31.40;39.10;;;;;;5053369;28;20357;-78
2022/02/11 12:47:02;;;;;;;;;;;32.50;37.60;;;;;;5053547;28;20340;-78
2022/02/11 12:49:33;;;;;;;;;;;30.20;37.90;;;;;;5035439;28;20293;-79
2022/02/11 12:51:59;;;;;;;;;;;29.10;37.70;;;;;;5053642;28;19913;-78
2022/02/11 12:54:25;;;;;;;;;;;30.80;38.60;;;;;;5035327;28;19931;-78
2022/02/11 12:57:02;;;;;;;;;;;31.00;37.40;;;;;;5053655;28;20288;-78
2022/02/11 12:59:28;;;;;;;;;;;29.80;38.10;;;;;;5053806;28;19916;-78
2022/02/11 13:01:54;;;;;;;;;;;30.10;37.70;;;;;;5053148;28;19913;-78
2022/02/11 13:04:21;;;;;;;;;;;30.70;38.40;;;;;;5053288;28;20261;-78
2022/02/11 13:06:46;;;;;;;;;;;30.40;38.50;;;;;;5053543;28;20427;-78
2022/02/11 13:09:12;;;;;;;;;;;30.00;36.90;;;;;;5053332;28;19912;-78
2022/02/11 13:11:38;;;;;;;;;;;30.70;38.10;;;;;;5053221;28;19952;-78
2022/02/11 13:14:04;;;;;;;;;;;30.30;37.70;;;;;;5053189;28;19908;-78
2022/02/11 13:16:31;;;;;;;;;;;30.30;37.40;;;;;;5035139;28;19927;-78
2022/02/11 13:18:57;;;;;;;;;;;29.60;37.50;;;;;;5053068;28;20387;-77
2022/02/11 13:21:23;;;;;;;;;;;28.10;38.60;;;;;;5053538;28;19917;-79
2022/02/11 13:23:52;;;;;;;;;;;25.50;39.60;;;;;;5053089;28;19982;-78
2022/02/11 13:26:21;;;;;;;;;;;24.90;41.00;;;;;;5053322;28;19916;-79
2022/02/11 13:28:49;;;;;;;;;;;25.30;41.10;;;;;;5054386;28;19915;-78
2022/02/11 13:31:14;;;;;;;;;;;24.80;39.80;;;;;;5056706;28;19955;-78
2022/02/11 13:33:40;;;;;;;;;;;25.40;39.60;;;;;;5056901;28;19944;-78
2022/02/11 13:36:11;;;;;;;;;;;25.20;41.80;;;;;;5056605;28;19913;-78
2022/02/11 13:38:38;;;;;;;;;;;25.50;41.30;;;;;;5038940;28;20332;-77
2022/02/11 13:41:08;;;;;;;;;;;24.70;41.60;;;;;;5056466;28;19913;-77
2022/02/11 13:43:46;;;;;;;;;;;24.30;42.10;;;;;;5038558;28;19909;-78
2022/02/11 13:46:22;;;;;;;;;;;24.30;41.20;;;;;;5056388;28;19932;-77
2022/02/11 13:48:52;;;;;;;;;;;23.50;41.30;;;;;;5038219;28;20258;-78
2022/02/11 13:51:18;;;;;;;;;;;23.50;39.90;;;;;;5056589;28;19954;-78
2022/02/11 13:53:47;;;;;;;;;;;24.80;40.90;;;;;;5056249;28;19909;-77
2022/02/11 13:56:14;;;;;;;;;;;25.60;40.70;;;;;;5056248;28;19909;-78
2022/02/11 13:58:59;;;;;;;;;;;24.70;41.20;;;;;;5056439;28;20396;-78
2022/02/11 14:01:26;;;;;;;;;;;26.40;41.60;;;;;;5056417;28;19920;-78
2022/02/11 14:03:52;;;;;;;;;;;27.40;38.90;;;;;;5038187;28;19909;-78
2022/02/11 14:06:18;;;;;;;;;;;28.20;40.10;;;;;;5038175;28;19909;-78
2022/02/11 14:08:45;;;;;;;;;;;27.60;39.90;;;;;;5055980;28;19916;-77
2022/02/11 14:11:20;;;;;;;;;;;26.00;40.00;;;;;;5055951;28;19915;-78
2022/02/11 14:13:48;;;;;;;;;;;25.80;41.60;;;;;;5056034;28;19944;-78
2022/02/11 14:16:15;;;;;;;;;;;25.60;41.70;;;;;;5037796;28;19921;-78
2022/02/11 14:18:42;;;;;;;;;;;25.20;42.30;;;;;;5056066;28;19931;-78
2022/02/11 14:21:16;;;;;;;;;;;24.20;43.60;;;;;;5055723;28;19919;-77
2022/02/11 14:23:41;;;;;;;;;;;23.10;45.20;;;;;;5055736;28;19952;-78
2022/02/11 14:26:07;;;;;;;;;;;22.50;45.40;;;;;;5055642;28;19916;-77
2022/02/11 14:28:34;;;;;;;;;;;21.70;45.80;;;;;;5055864;28;19913;-77
2022/02/11 14:31:02;;;;;;;;;;;20.80;47.60;;;;;;5037665;28;20350;-78
2022/02/11 14:33:27;;;;;;;;;;;19.40;48.40;;;;;;5055516;28;19909;-77
2022/02/11 14:35:53;;;;;;;;;;;19.70;49.50;;;;;;5055754;28;19909;-76
2022/02/11 14:38:18;;;;;;;;;;;19.40;49.60;;;;;;5055912;28;19995;-77
2022/02/11 14:43:28;;;;;;;;;;;18.70;51.20;;;;;;5055420;28;19939;-78
2022/02/11 14:45:54;;;;;;;;;;;19.10;49.70;;;;;;5055204;28;19999;-77
2022/02/11 14:48:20;;;;;;;;;;;19.70;49.10;;;;;;5055689;28;19915;-78
2022/02/11 14:50:46;;;;;;;;;;;20.20;48.80;;;;;;5055180;28;20339;-77
2022/02/11 14:53:11;;;;;;;;;;;19.60;48.40;;;;;;5055134;28;19917;-77
2022/02/11 14:55:37;;;;;;;;;;;19.20;49.50;;;;;;5055103;28;19978;-78
2022/02/11 14:58:03;;;;;;;;;;;19.20;48.60;;;;;;5055246;28;20331;-77
2022/02/11 15:00:29;;;;;;;;;;;19.60;46.60;;;;;;5036996;28;20015;-76
2022/02/11 15:02:55;;;;;;;;;;;19.70;47.50;;;;;;5055015;28;19970;-77
2022/02/11 15:05:21;;;;;;;;;;;19.40;46.60;;;;;;5054936;28;19912;-81
2022/02/11 15:07:48;;;;;;;;;;;18.90;46.80;;;;;;5055331;28;19909;-80
2022/02/11 15:10:14;;;;;;;;;;;18.30;47.60;;;;;;5036893;28;19915;-80
2022/02/11 15:12:39;;;;;;;;;;;17.70;50.50;;;;;;5054760;28;19936;-79
2022/02/11 15:15:05;;;;;;;;;;;17.40;50.80;;;;;;5054731;28;19948;-80
2022/02/11 15:17:31;;;;;;;;;;;17.40;50.30;;;;;;5054277;28;19928;-79
2022/02/11 15:19:56;;;;;;;;;;;17.10;50.00;;;;;;5054782;28;19909;-80
2022/02/11 15:22:22;;;;;;;;;;;16.40;51.40;;;;;;5054731;28;19913;-80
2022/02/11 15:24:48;;;;;;;;;;;16.10;53.50;;;;;;5054611;28;20279;-80
2022/02/11 15:27:16;;;;;;;;;;;16.00;53.00;;;;;;5036603;28;19916;-79
2022/02/11 15:29:42;;;;;;;;;;;15.80;53.00;;;;;;5036657;28;19912;-79
2022/02/11 15:32:09;;;;;;;;;;;15.50;54.10;;;;;;5054202;28;20403;-80
2022/02/11 15:34:34;;;;;;;;;;;15.40;55.50;;;;;;5054447;28;19916;-80
2022/02/11 15:37:00;;;;;;;;;;;15.20;55.80;;;;;;5054231;28;19909;-80
2022/02/11 15:39:26;;;;;;;;;;;15.00;56.00;;;;;;5054519;28;19958;-79
2022/02/11 15:41:51;;;;;;;;;;;14.80;56.60;;;;;;5036261;28;19935;-80
2022/02/11 15:44:17;;;;;;;;;;;14.80;57.40;;;;;;5054198;28;19959;-80
2022/02/11 15:46:43;;;;;;;;;;;14.70;57.80;;;;;;5054114;28;19991;-80
2022/02/11 15:49:08;;;;;;;;;;;14.50;57.60;;;;;;5036213;28;20408;-80
2022/02/11 15:51:34;;;;;;;;;;;14.40;59.00;;;;;;5053622;28;19996;-80
2022/02/11 15:54:00;;;;;;;;;;;14.30;58.60;;;;;;5053997;28;20262;-79
2022/02/11 15:56:26;;;;;;;;;;;14.40;58.70;;;;;;5054037;28;19909;-80
2022/02/11 15:58:52;;;;;;;;;;;14.30;60.00;;;;;;5053954;28;20284;-79
2022/02/11 16:01:18;;;;;;;;;;;14.20;58.00;;;;;;5054435;28;19913;-80
2022/02/11 16:03:44;;;;;;;;;;;13.80;59.60;;;;;;5036091;28;19916;-80
2022/02/11 16:06:10;;;;;;;;;;;14.00;59.50;;;;;;5053897;28;19913;-79
2022/02/11 16:08:35;;;;;;;;;;;14.10;60.10;;;;;;5053843;28;20377;-79
2022/02/11 16:11:02;;;;;;;;;;;13.80;60.70;;;;;;5054317;28;19916;-79
2022/02/11 16:13:27;;;;;;;;;;;13.70;61.70;;;;;;5053658;28;19909;-79
2022/02/11 16:15:53;;;;;;;;;;;13.70;60.90;;;;;;5035650;28;20047;-79
2022/02/11 16:18:23;;;;;;;;;;;13.70;62.00;;;;;;5053686;28;20008;-80
2022/02/11 16:20:48;;;;;;;;;;;13.80;61.70;;;;;;5053502;28;19913;-79
2022/02/11 16:23:16;;;;;;;;;;;13.80;61.90;;;;;;5053668;28;19915;-79
2022/02/11 16:25:42;;;;;;;;;;;13.70;60.10;;;;;;5053774;28;20365;-80
2022/02/11 16:28:08;;;;;;;;;;;13.50;62.20;;;;;;5053705;28;20285;-79
2022/02/11 16:30:34;;;;;;;;;;;13.50;62.40;;;;;;5053569;28;19995;-79
2022/02/11 16:33:00;;;;;;;;;;;13.50;61.50;;;;;;5035645;28;19951;-79
2022/02/11 16:35:26;;;;;;;;;;;13.40;62.20;;;;;;5053850;28;19956;-79
2022/02/11 16:37:51;;;;;;;;;;;13.40;62.60;;;;;;5053561;28;19916;-79
2022/02/11 16:40:17;;;;;;;;;;;13.30;63.80;;;;;;5053368;28;19909;-79
2022/02/11 16:42:44;;;;;;;;;;;13.00;64.40;;;;;;5035662;28;19909;-79
2022/02/11 16:45:09;;;;;;;;;;;12.90;65.10;;;;;;5053625;28;19966;-79
2022/02/11 16:47:36;;;;;;;;;;;12.70;65.00;;;;;;5053188;28;19909;-79
2022/02/11 16:50:03;;;;;;;;;;;12.60;65.10;;;;;;5053384;28;19940;-79
2022/02/11 16:52:29;;;;;;;;;;;12.50;65.70;;;;;;5053279;28;19959;-79
2022/02/11 16:54:54;;;;;;;;;;;12.30;66.30;;;;;;5053358;28;20011;-79
2022/02/11 16:57:20;;;;;;;;;;;12.10;66.80;;;;;;5053329;28;19935;-79
2022/02/11 16:59:49;;;;;;;;;;;12.10;67.00;;;;;;5052609;28;19909;-80
2022/02/11 17:02:18;;;;;;;;;;;11.90;67.40;;;;;;5034308;28;20003;-79
2022/02/11 17:04:44;;;;;;;;;;;11.70;68.20;;;;;;5055309;28;19915;-79
2022/02/11 17:07:09;;;;;;;;;;;11.80;68.20;;;;;;5055306;28;19913;-79
2022/02/11 17:09:35;;;;;;;;;;;11.90;68.30;;;;;;5055285;28;20024;-79
2022/02/11 17:12:01;;;;;;;;;;;12.00;68.80;;;;;;5055144;28;19908;-79
2022/02/11 17:14:26;;;;;;;;;;;11.80;68.40;;;;;;5055260;28;19913;-79
2022/02/11 17:16:53;;;;;;;;;;;11.60;68.10;;;;;;5056752;28;19925;-79
2022/02/11 17:19:22;;;;;;;;;;;11.50;68.50;;;;;;5057248;28;20378;-79
2022/02/11 17:21:51;;;;;;;;;;;11.30;69.70;;;;;;5038942;28;19913;-79
2022/02/11 17:24:18;;;;;;;;;;;11.20;69.50;;;;;;5056989;28;19909;-79
2022/02/11 17:26:45;;;;;;;;;;;11.20;71.00;;;;;;5056917;28;19916;-79
2022/02/11 17:29:11;;;;;;;;;;;11.10;70.10;;;;;;5056781;28;19913;-79
2022/02/11 17:31:38;;;;;;;;;;;11.20;71.70;;;;;;5056935;28;19916;-79
2022/02/11 17:34:03;;;;;;;;;;;11.10;70.70;;;;;;5056812;28;19917;-79
2022/02/11 17:36:29;;;;;;;;;;;11.00;70.50;;;;;;5038694;28;19917;-79
2022/02/11 17:38:55;;;;;;;;;;;10.80;70.70;;;;;;5056610;28;19908;-79
2022/02/11 17:41:23;;;;;;;;;;;10.70;70.90;;;;;;5056721;28;20285;-79
2022/02/11 17:43:52;;;;;;;;;;;10.70;71.20;;;;;;5038542;28;20377;-79
2022/02/11 17:46:19;;;;;;;;;;;10.60;71.50;;;;;;5038592;28;20344;-79
2022/02/11 17:48:44;;;;;;;;;;;10.50;72.50;;;;;;5056456;28;20381;-79
2022/02/11 17:51:10;;;;;;;;;;;10.60;72.50;;;;;;5056341;28;19912;-79
2022/02/11 17:53:36;;;;;;;;;;;10.90;72.50;;;;;;5038339;28;19951;-79
2022/02/11 17:56:02;;;;;;;;;;;11.00;73.20;;;;;;5056252;28;19940;-79
2022/02/11 17:58:28;;;;;;;;;;;10.80;74.80;;;;;;5056431;28;19940;-79
2022/02/11 18:01:00;;;;;;;;;;;10.60;75.50;;;;;;5056132;28;19962;-79
2022/02/11 18:03:26;;;;;;;;;;;10.50;75.60;;;;;;5056429;28;19908;-79
2022/02/11 18:05:52;;;;;;;;;;;10.70;75.60;;;;;;5056041;28;19992;-79
2022/02/11 18:08:18;;;;;;;;;;;10.60;76.30;;;;;;5056038;28;20280;-79
2022/02/11 18:10:43;;;;;;;;;;;10.60;76.70;;;;;;5056154;28;19909;-79
2022/02/11 18:13:12;;;;;;;;;;;10.30;77.70;;;;;;5056536;28;20012;-79
2022/02/11 18:15:38;;;;;;;;;;;10.40;78.30;;;;;;5054941;28;19909;-79
2022/02/11 18:18:04;;;;;;;;;;;10.30;78.40;;;;;;5055909;28;19909;-79
2022/02/11 18:20:29;;;;;;;;;;;10.10;78.50;;;;;;5056123;28;19931;-79
2022/02/11 18:22:55;;;;;;;;;;;10.20;79.00;;;;;;5037935;28;20003;-80
2022/02/11 18:25:21;;;;;;;;;;;10.20;79.40;;;;;;5055741;28;20288;-79